createdAt,value
2018-09-02T00:02:17.121Z,101135.48
2018-09-02T00:07:20.656Z,101123.62
2018-09-02T00:12:24.520Z,101132.29
2018-09-02T00:17:28.294Z,101130.55
2018-09-02T00:22:31.845Z,101129.42
2018-09-02T00:27:35.368Z,101117.97
2018-09-02T00:32:38.966Z,101120.44
2018-09-02T00:37:42.620Z,101121.05
2018-09-02T00:42:46.246Z,101118.70
2018-09-02T00:47:49.863Z,101122.72
2018-09-02T00:52:53.350Z,101122.28
2018-09-02T00:57:57.035Z,101114.63
2018-09-02T01:03:00.714Z,101124.15
2018-09-02T01:08:04.268Z,101122.20
2018-09-02T01:13:07.965Z,101117.16
2018-09-02T01:18:12.645Z,101115.91
2018-09-02T01:23:16.295Z,101119.30
2018-09-02T01:28:19.907Z,101115.50
2018-09-02T01:33:23.505Z,101112.30
2018-09-02T01:38:27.003Z,101103.95
2018-09-02T01:43:30.702Z,101097.77
2018-09-02T01:48:34.200Z,101107.03
2018-09-02T01:53:37.722Z,101107.45
2018-09-02T01:58:41.319Z,101113.64
2018-09-02T02:03:45.130Z,101114.45
2018-09-02T02:08:48.857Z,101108.89
2018-09-02T02:13:52.561Z,101110.23
2018-09-02T02:18:56.076Z,101102.17
2018-09-02T02:23:59.675Z,101111.23
2018-09-02T02:29:03.315Z,101107.00
2018-09-02T02:34:06.996Z,101092.14
2018-09-02T02:39:11.830Z,101094.52
2018-09-02T02:44:15.388Z,101102.55
2018-09-02T02:49:18.963Z,101110.59
2018-09-02T02:54:22.531Z,101094.13
2018-09-02T02:59:26.235Z,101090.80
2018-09-02T03:04:29.976Z,101087.50
2018-09-02T03:09:33.710Z,101093.30
2018-09-02T03:14:37.333Z,101090.09
2018-09-02T03:19:41.006Z,101076.04
2018-09-02T03:24:44.606Z,101079.97
2018-09-02T03:29:48.285Z,101069.55
2018-09-02T03:34:51.952Z,101071.39
2018-09-02T03:39:55.606Z,101062.23
2018-09-02T03:44:59.303Z,101065.52
2018-09-02T03:50:03.150Z,101069.45
2018-09-02T03:55:07.937Z,101068.52
2018-09-02T04:00:11.605Z,101071.10
2018-09-02T04:05:15.241Z,101062.85
2018-09-02T04:10:18.854Z,101060.77
2018-09-02T04:15:22.390Z,101062.75
2018-09-02T04:20:34.000Z,101065.44
2018-09-02T04:25:37.552Z,101063.05
2018-09-02T04:30:41.315Z,101064.61
2018-09-02T04:35:44.857Z,101060.08
2018-09-02T04:40:48.374Z,101048.41
2018-09-02T04:45:51.854Z,101044.47
2018-09-02T04:50:55.442Z,101044.28
2018-09-02T04:55:58.979Z,101054.13
2018-09-02T05:01:02.754Z,101054.55
2018-09-02T05:06:06.315Z,101049.15
2018-09-02T05:11:09.975Z,101043.80
2018-09-02T05:16:13.469Z,101046.84
2018-09-02T05:21:16.984Z,101043.57
2018-09-02T05:26:20.574Z,101044.86
2018-09-02T05:31:24.140Z,101047.20
2018-09-02T05:36:27.735Z,101036.20
2018-09-02T05:41:31.294Z,101042.56
2018-09-02T05:46:34.789Z,101036.98
2018-09-02T05:51:38.315Z,101042.36
2018-09-02T05:56:41.876Z,101030.54
2018-09-02T06:01:45.471Z,101038.47
2018-09-02T06:06:49.023Z,101035.92
2018-09-02T06:11:53.267Z,101038.55
2018-09-02T06:16:56.929Z,101040.20
2018-09-02T06:22:00.463Z,101036.69
2018-09-02T06:27:03.995Z,101042.80
2018-09-02T06:32:07.620Z,101038.34
2018-09-02T06:37:11.233Z,101039.63
2018-09-02T06:42:14.742Z,101051.63
2018-09-02T06:47:18.297Z,101044.91
2018-09-02T06:52:21.895Z,101047.43
2018-09-02T06:57:25.420Z,101048.59
2018-09-02T07:02:28.969Z,101043.34
2018-09-02T07:07:32.477Z,101042.00
2018-09-02T07:12:36.255Z,101043.00
2018-09-02T07:17:39.756Z,101039.30
2018-09-02T07:22:43.290Z,101048.92
2018-09-02T07:27:47.093Z,101051.31
2018-09-02T07:33:04.159Z,101054.15
2018-09-02T07:38:07.755Z,101047.69
2018-09-02T07:43:11.341Z,101054.07
2018-09-02T07:48:14.830Z,101057.57
2018-09-02T07:53:18.418Z,101055.02
2018-09-02T07:58:21.924Z,101058.16
2018-09-02T08:03:26.270Z,101065.81
2018-09-02T08:08:29.831Z,101057.47
2018-09-02T08:13:33.285Z,101063.34
2018-09-02T08:18:36.823Z,101053.45
2018-09-02T08:23:40.411Z,101052.09
2018-09-02T08:28:44.023Z,101056.31
2018-09-02T08:33:47.586Z,101048.48
2018-09-02T08:38:51.171Z,101041.17
2018-09-02T08:43:54.710Z,101045.59
2018-09-02T08:48:58.305Z,101043.36
2018-09-02T08:54:02.152Z,101044.08
2018-09-02T08:59:06.179Z,101041.30
2018-09-02T09:04:09.743Z,101042.53
2018-09-02T09:09:13.778Z,101047.69
2018-09-02T09:14:17.196Z,101054.73
2018-09-02T09:19:20.762Z,101041.66
2018-09-02T09:24:24.317Z,101041.23
2018-09-02T09:29:27.909Z,101040.54
2018-09-02T09:34:31.410Z,101038.97
2018-09-02T09:39:34.933Z,101032.80
2018-09-02T09:44:38.457Z,101036.31
2018-09-02T09:49:42.019Z,101032.31
2018-09-02T09:54:45.641Z,101022.21
2018-09-02T09:59:49.186Z,101016.85
2018-09-02T10:04:52.744Z,101005.44
2018-09-02T10:09:56.305Z,101012.77
2018-09-02T10:14:59.845Z,101005.23
2018-09-02T10:20:06.468Z,101001.34
2018-09-02T10:25:10.150Z,101001.12
2018-09-02T10:30:22.550Z,100999.27
2018-09-02T10:35:26.185Z,101000.39
2018-09-02T10:40:29.734Z,100996.58
2018-09-02T10:45:33.236Z,100991.65
2018-09-02T10:50:36.815Z,100976.69
2018-09-02T10:55:40.939Z,100968.76
2018-09-02T11:00:44.451Z,100959.04
2018-09-02T11:05:48.001Z,100945.77
2018-09-02T11:10:51.647Z,100948.74
2018-09-02T11:15:55.214Z,100949.47
2018-09-02T11:20:58.665Z,100942.51
2018-09-02T11:26:02.168Z,100942.32
2018-09-02T11:31:05.709Z,100936.03
2018-09-02T11:36:09.271Z,100938.09
2018-09-02T11:41:12.857Z,100934.48
2018-09-02T11:46:16.447Z,100932.66
2018-09-02T11:51:20.004Z,100934.44
2018-09-02T11:56:23.501Z,100928.33
2018-09-02T12:01:27.015Z,100928.81
2018-09-02T12:06:30.561Z,100937.48
2018-09-02T12:11:34.087Z,100918.50
2018-09-02T12:16:37.596Z,100930.09
2018-09-02T12:21:41.123Z,100931.95
2018-09-02T12:26:44.762Z,100930.61
2018-09-02T12:31:48.798Z,100936.17
2018-09-02T12:36:52.429Z,100929.11
2018-09-02T12:41:56.438Z,100926.52
2018-09-02T12:46:59.914Z,100914.86
2018-09-02T12:52:03.650Z,100912.37
2018-09-02T12:57:07.245Z,100911.94
2018-09-02T13:02:10.730Z,100912.20
2018-09-02T13:07:14.232Z,100911.98
2018-09-02T13:12:17.781Z,100909.98
2018-09-02T13:17:21.449Z,100907.59
2018-09-02T13:22:25.002Z,100910.20
2018-09-02T13:27:28.677Z,100897.83
2018-09-02T13:32:32.254Z,100901.55
2018-09-02T13:37:35.892Z,100898.37
2018-09-02T13:42:39.412Z,100894.66
2018-09-02T13:47:43.967Z,100884.41
2018-09-02T13:52:47.559Z,100884.41
2018-09-02T13:57:51.094Z,100877.73
2018-09-02T14:02:54.625Z,100880.79
2018-09-02T14:07:58.434Z,100874.19
2018-09-02T14:13:01.961Z,100863.01
2018-09-02T14:18:05.506Z,100857.52
2018-09-02T14:23:09.440Z,100854.31
2018-09-02T14:28:13.047Z,100845.74
2018-09-02T14:33:17.503Z,100854.77
2018-09-02T14:38:21.026Z,100860.13
2018-09-02T14:43:24.609Z,100857.37
2018-09-02T14:48:28.132Z,100854.28
2018-09-02T14:53:31.780Z,100854.02
2018-09-02T14:58:35.406Z,100864.53
2018-09-02T15:03:38.959Z,100858.16
2018-09-02T15:08:42.565Z,100858.05
2018-09-02T15:13:47.924Z,100854.44
2018-09-02T15:18:51.483Z,100856.30
2018-09-02T15:23:54.998Z,100851.33
2018-09-02T15:28:58.556Z,100847.08
2018-09-02T15:34:02.039Z,100852.67
2018-09-02T15:39:10.360Z,100852.38
2018-09-02T15:44:14.275Z,100852.04
2018-09-02T15:49:18.598Z,100846.74
2018-09-02T15:54:22.288Z,100844.70
2018-09-02T15:59:26.363Z,100848.02
2018-09-02T16:04:30.014Z,100846.84
2018-09-02T16:09:33.495Z,100844.13
2018-09-02T16:14:37.468Z,100847.10
2018-09-02T16:19:41.052Z,100843.78
2018-09-02T16:24:45.886Z,100845.31
2018-09-02T16:29:49.403Z,100840.20
2018-09-02T16:34:52.978Z,100843.59
2018-09-02T16:39:56.475Z,100832.39
2018-09-02T16:45:01.356Z,100828.53
2018-09-02T16:50:07.148Z,100837.81
2018-09-02T16:55:10.714Z,100818.65
2018-09-02T17:00:14.246Z,100815.05
2018-09-02T17:05:23.652Z,100809.65
2018-09-02T17:10:27.861Z,100812.02
2018-09-02T17:15:32.648Z,100813.30
2018-09-02T17:20:41.208Z,100812.38
2018-09-02T17:25:46.197Z,100816.72
2018-09-02T17:30:50.667Z,100815.69
2018-09-02T17:35:55.481Z,100815.30
2018-09-02T17:41:00.219Z,100812.45
2018-09-02T17:46:03.891Z,100802.57
2018-09-02T17:51:07.445Z,100809.22
2018-09-02T17:56:11.421Z,100805.83
2018-09-02T18:01:16.201Z,100811.95
2018-09-02T18:06:19.803Z,100811.96
2018-09-02T18:11:24.147Z,100814.34
2018-09-02T18:16:27.992Z,100819.94
2018-09-02T18:21:31.494Z,100809.95
2018-09-02T18:26:35.022Z,100799.73
2018-09-02T18:31:38.601Z,100795.83
2018-09-02T18:36:43.930Z,100796.58
2018-09-02T18:41:47.457Z,100783.16
2018-09-02T18:46:51.059Z,100779.50
2018-09-02T18:51:54.622Z,100772.48
2018-09-02T18:56:59.194Z,100767.64
2018-09-02T19:02:03.717Z,100755.98
2018-09-02T19:07:08.862Z,100759.11
2018-09-02T19:12:12.325Z,100754.27
2018-09-02T19:17:15.854Z,100755.91
2018-09-02T19:22:19.311Z,100733.09
2018-09-02T19:27:22.810Z,100743.83
2018-09-02T19:32:27.323Z,100740.55
2018-09-02T19:37:32.308Z,100730.83
2018-09-02T19:42:36.698Z,100734.14
2018-09-02T19:47:41.293Z,100740.33
2018-09-02T19:52:45.087Z,100732.50
2018-09-02T19:57:48.756Z,100736.00
2018-09-02T20:02:52.396Z,100737.87
2018-09-02T20:07:57.003Z,100741.89
2018-09-02T20:13:00.606Z,100730.53
2018-09-02T20:18:05.363Z,100737.24
2018-09-02T20:23:09.011Z,100734.34
2018-09-02T20:28:13.710Z,100721.25
2018-09-02T20:33:18.500Z,100712.80
2018-09-02T20:38:23.171Z,100710.98
2018-09-02T20:43:27.025Z,100711.91
2018-09-02T20:48:31.093Z,100710.04
2018-09-02T20:53:35.793Z,100712.84
2018-09-02T20:58:40.274Z,100710.98
2018-09-02T21:03:45.135Z,100702.41
2018-09-02T21:08:52.732Z,100688.17
2018-09-02T21:13:57.054Z,100682.73
2018-09-02T21:19:01.489Z,100683.03
2018-09-02T21:24:06.065Z,100667.75
2018-09-02T21:29:11.403Z,100662.91
2018-09-02T21:34:15.954Z,100657.36
2018-09-02T21:39:20.107Z,100643.66
2018-09-02T21:44:23.610Z,100635.48
2018-09-02T21:49:27.375Z,100627.56
2018-09-02T21:54:30.962Z,100617.23
2018-09-02T21:59:34.553Z,100614.55
2018-09-02T22:04:38.365Z,100618.98
2018-09-02T22:09:41.955Z,100611.47
2018-09-02T22:14:45.910Z,100608.19
2018-09-02T22:19:49.418Z,100604.47
2018-09-02T22:24:53.118Z,100591.94
2018-09-02T22:29:56.822Z,100593.21
2018-09-02T22:35:00.318Z,100589.94
2018-09-02T22:40:04.098Z,100583.23
2018-09-02T22:45:07.911Z,100594.08
2018-09-02T22:50:11.456Z,100591.75
2018-09-02T22:55:14.926Z,100599.37
2018-09-02T23:00:18.441Z,100585.81
2018-09-02T23:05:21.932Z,100575.70
2018-09-02T23:10:25.473Z,100562.59
2018-09-02T23:25:05.373Z,100558.98
2018-09-02T23:30:08.846Z,100557.26
2018-09-02T23:35:12.379Z,100548.52
2018-09-02T23:40:15.902Z,100535.91
2018-09-02T23:45:19.463Z,100540.98
2018-09-02T23:50:22.951Z,100534.52
2018-09-02T23:55:26.530Z,100529.58
